createdAt,value
2018-08-04T00:04:47.290Z,99.90
2018-08-04T00:07:16.648Z,99.90
2018-08-04T00:09:46.031Z,99.90
2018-08-04T00:12:15.386Z,99.90
2018-08-04T00:14:44.773Z,99.90
2018-08-04T00:17:14.107Z,99.90
2018-08-04T00:22:12.342Z,99.90
2018-08-04T00:24:41.732Z,99.90
2018-08-04T00:27:11.120Z,99.90
2018-08-04T00:29:40.448Z,99.90
2018-08-04T00:32:09.787Z,99.90
2018-08-04T00:34:39.129Z,99.90
2018-08-04T00:37:08.463Z,99.90
2018-08-04T00:39:37.928Z,99.90
2018-08-04T00:42:07.249Z,99.90
2018-08-04T00:44:36.669Z,99.90
2018-08-04T00:47:06.428Z,99.90
2018-08-04T00:49:35.797Z,99.90
2018-08-04T00:52:05.234Z,99.90
2018-08-04T00:54:34.599Z,99.90
2018-08-04T00:57:03.981Z,99.90
2018-08-04T00:59:33.326Z,99.90
2018-08-04T01:02:02.658Z,99.90
2018-08-04T01:04:32.006Z,99.90
2018-08-04T01:07:01.365Z,99.90
2018-08-04T01:09:30.727Z,99.90
2018-08-04T01:12:00.118Z,99.90
2018-08-04T01:14:29.454Z,99.90
2018-08-04T01:16:58.837Z,99.90
2018-08-04T01:19:28.163Z,99.90
2018-08-04T01:21:57.512Z,99.90
2018-08-04T01:24:26.840Z,99.90
2018-08-04T01:26:56.178Z,99.90
2018-08-04T01:29:25.543Z,99.90
2018-08-04T01:31:54.901Z,99.90
2018-08-04T01:34:24.301Z,99.90
2018-08-04T01:36:53.643Z,99.90
2018-08-04T01:39:22.995Z,99.90
2018-08-04T01:41:52.336Z,99.90
2018-08-04T01:44:21.693Z,99.90
2018-08-04T01:46:51.148Z,99.90
2018-08-04T01:49:20.517Z,99.90
2018-08-04T01:51:49.852Z,99.90
2018-08-04T01:54:19.180Z,99.90
2018-08-04T01:56:48.523Z,99.90
2018-08-04T01:59:17.932Z,99.90
2018-08-04T02:01:47.241Z,99.90
2018-08-04T02:04:16.591Z,99.90
2018-08-04T02:06:45.909Z,99.90
2018-08-04T02:09:15.365Z,99.90
2018-08-04T02:11:44.718Z,99.90
2018-08-04T02:14:14.033Z,99.90
2018-08-04T02:16:43.353Z,99.90
2018-08-04T02:19:12.791Z,99.90
2018-08-04T02:21:42.270Z,99.90
2018-08-04T02:24:11.619Z,99.90
2018-08-04T02:29:09.846Z,99.90
2018-08-04T02:31:39.197Z,99.90
2018-08-04T02:34:08.596Z,99.90
2018-08-04T02:39:08.125Z,99.90
2018-08-04T02:41:37.497Z,99.90
2018-08-04T02:44:07.051Z,99.90
2018-08-04T02:46:36.444Z,99.90
2018-08-04T02:49:06.208Z,99.90
2018-08-04T02:51:35.547Z,99.90
2018-08-04T02:56:33.840Z,99.90
2018-08-04T02:59:03.206Z,99.90
2018-08-04T03:01:32.571Z,99.90
2018-08-04T03:04:01.886Z,99.90
2018-08-04T03:06:31.241Z,99.90
2018-08-04T03:09:00.546Z,99.90
2018-08-04T03:11:29.901Z,99.90
2018-08-04T03:13:59.252Z,99.90
2018-08-04T03:16:28.579Z,99.90
2018-08-04T03:19:00.096Z,99.90
2018-08-04T03:21:30.241Z,99.90
2018-08-04T03:23:59.573Z,99.90
2018-08-04T03:26:28.925Z,99.90
2018-08-04T03:28:58.278Z,99.90
2018-08-04T03:31:27.595Z,99.90
2018-08-04T03:33:56.928Z,99.90
2018-08-04T03:36:26.300Z,99.90
2018-08-04T03:38:55.624Z,99.90
2018-08-04T03:41:24.998Z,99.90
2018-08-04T03:43:54.381Z,99.90
2018-08-04T03:46:23.765Z,99.90
2018-08-04T03:48:53.224Z,99.90
2018-08-04T03:51:22.628Z,99.90
2018-08-04T03:53:52.014Z,99.90
2018-08-04T03:56:21.382Z,99.90
2018-08-04T03:58:51.047Z,99.90
2018-08-04T04:01:20.456Z,99.90
2018-08-04T04:03:50.876Z,99.90
2018-08-04T04:06:20.220Z,99.90
2018-08-04T04:08:49.561Z,99.90
2018-08-04T04:11:18.917Z,99.90
2018-08-04T04:13:48.290Z,99.90
2018-08-04T04:16:17.622Z,99.90
2018-08-04T04:18:46.982Z,99.90
2018-08-04T04:21:16.364Z,99.90
2018-08-04T04:23:45.795Z,99.90
2018-08-04T04:26:15.168Z,99.90
2018-08-04T04:28:44.557Z,99.90
2018-08-04T04:31:13.980Z,99.90
2018-08-04T04:33:43.399Z,99.90
2018-08-04T04:36:12.801Z,99.90
2018-08-04T04:38:42.200Z,99.90
2018-08-04T04:41:11.596Z,99.90
2018-08-04T04:43:40.919Z,99.90
2018-08-04T04:46:10.277Z,99.90
2018-08-04T04:48:39.732Z,99.90
2018-08-04T04:51:09.128Z,99.90
2018-08-04T04:53:38.483Z,99.90
2018-08-04T04:56:07.847Z,99.90
2018-08-04T04:58:37.183Z,99.90
2018-08-04T05:01:06.530Z,99.90
2018-08-04T05:03:35.868Z,99.90
2018-08-04T05:06:05.246Z,99.90
2018-08-04T05:08:34.584Z,99.90
2018-08-04T05:11:04.088Z,99.90
2018-08-04T05:13:33.608Z,99.90
2018-08-04T05:16:03.051Z,99.90
2018-08-04T05:18:32.430Z,99.90
2018-08-04T05:21:01.859Z,99.90
2018-08-04T05:23:31.246Z,99.90
2018-08-04T05:26:00.567Z,99.90
2018-08-04T05:28:29.898Z,99.90
2018-08-04T05:30:59.270Z,99.90
2018-08-04T05:33:28.681Z,99.90
2018-08-04T05:35:58.037Z,99.90
2018-08-04T05:38:27.326Z,99.90
2018-08-04T05:40:56.716Z,99.90
2018-08-04T05:43:26.164Z,99.90
2018-08-04T05:45:55.530Z,99.90
2018-08-04T05:48:24.963Z,99.90
2018-08-04T05:50:54.628Z,99.90
2018-08-04T05:53:24.023Z,99.90
2018-08-04T05:58:22.255Z,99.90
2018-08-04T06:00:51.742Z,99.90
2018-08-04T06:03:21.093Z,99.90
2018-08-04T06:05:50.517Z,99.90
2018-08-04T06:08:20.130Z,99.90
2018-08-04T06:10:49.485Z,99.90
2018-08-04T06:13:18.898Z,99.90
2018-08-04T06:15:48.279Z,99.90
2018-08-04T06:18:17.715Z,99.90
2018-08-04T06:20:47.223Z,99.90
2018-08-04T06:23:16.595Z,99.90
2018-08-04T06:25:46.085Z,99.90
2018-08-04T06:28:15.750Z,99.90
2018-08-04T06:30:45.138Z,99.90
2018-08-04T06:33:14.500Z,99.90
2018-08-04T06:35:43.801Z,99.90
2018-08-04T06:38:13.162Z,99.90
2018-08-04T06:40:42.589Z,99.90
2018-08-04T06:43:12.059Z,99.90
2018-08-04T06:45:41.475Z,99.90
2018-08-04T06:48:10.868Z,99.90
2018-08-04T06:50:40.299Z,99.90
2018-08-04T06:53:09.691Z,99.90
2018-08-04T06:55:39.070Z,99.90
2018-08-04T06:58:08.488Z,99.90
2018-08-04T07:00:37.803Z,99.90
2018-08-04T07:03:07.215Z,99.90
2018-08-04T07:05:36.540Z,99.90
2018-08-04T07:08:06.002Z,99.90
2018-08-04T07:10:35.362Z,99.90
2018-08-04T07:13:04.742Z,99.90
2018-08-04T07:15:34.139Z,99.90
2018-08-04T07:18:03.655Z,99.90
2018-08-04T07:20:32.978Z,99.90
2018-08-04T07:23:02.398Z,99.90
2018-08-04T07:25:31.774Z,99.90
2018-08-04T07:28:01.205Z,99.90
2018-08-04T07:30:30.573Z,99.90
2018-08-04T07:32:59.941Z,99.90
2018-08-04T07:35:29.272Z,99.90
2018-08-04T07:37:58.762Z,99.90
2018-08-04T07:40:28.125Z,99.90
2018-08-04T07:42:57.826Z,99.90
2018-08-04T07:45:27.238Z,99.80
2018-08-04T07:47:56.739Z,99.30
2018-08-04T07:50:26.216Z,99.00
2018-08-04T07:52:55.801Z,98.00
2018-08-04T07:55:25.312Z,97.90
2018-08-04T07:57:55.018Z,98.10
2018-08-04T08:00:24.466Z,97.60
2018-08-04T08:02:54.112Z,97.90
2018-08-04T08:07:52.600Z,97.00
2018-08-04T08:10:22.193Z,96.60
2018-08-04T08:12:52.238Z,97.00
2018-08-04T08:20:22.836Z,95.60
2018-08-04T08:22:54.273Z,95.70
2018-08-04T08:25:24.178Z,94.70
2018-08-04T08:27:55.439Z,94.40
2018-08-04T08:30:26.677Z,94.10
2018-08-04T08:33:02.208Z,93.10
2018-08-04T08:35:32.988Z,92.40
2018-08-04T08:38:08.042Z,92.70
2018-08-04T08:40:37.817Z,94.20
2018-08-04T08:43:07.526Z,93.80
2018-08-04T08:45:37.099Z,92.90
2018-08-04T08:50:35.884Z,92.10
2018-08-04T08:53:05.702Z,91.40
2018-08-04T08:55:35.116Z,91.60
2018-08-04T08:58:06.283Z,91.10
2018-08-04T09:00:35.801Z,90.50
2018-08-04T09:03:05.392Z,90.90
2018-08-04T09:05:34.914Z,90.20
2018-08-04T09:08:04.562Z,89.30
2018-08-04T09:10:35.053Z,87.30
2018-08-04T09:13:08.275Z,87.20
2018-08-04T09:15:42.840Z,85.60
2018-08-04T09:18:12.892Z,86.40
2018-08-04T09:20:43.618Z,86.00
2018-08-04T09:23:18.022Z,87.90
2018-08-04T09:25:48.790Z,84.90
2018-08-04T09:28:23.603Z,83.10
2018-08-04T09:30:54.333Z,83.70
2018-08-04T09:33:24.292Z,83.30
2018-08-04T09:35:54.203Z,84.40
2018-08-04T09:38:24.859Z,82.70
2018-08-04T09:40:59.736Z,81.00
2018-08-04T09:43:35.400Z,77.70
2018-08-04T09:46:05.106Z,73.20
2018-08-04T09:48:34.548Z,76.10
2018-08-04T09:51:03.908Z,74.20
2018-08-04T09:53:33.391Z,77.70
2018-08-04T09:56:02.918Z,80.10
2018-08-04T09:58:32.351Z,75.40
2018-08-04T10:01:06.997Z,74.50
2018-08-04T10:03:36.501Z,76.40
2018-08-04T10:06:05.958Z,75.50
2018-08-04T10:08:35.390Z,75.70
2018-08-04T10:11:04.769Z,73.70
2018-08-04T10:13:34.261Z,72.00
2018-08-04T10:16:03.655Z,76.60
2018-08-04T10:18:33.013Z,76.10
2018-08-04T10:23:31.404Z,73.10
2018-08-04T10:26:00.935Z,72.50
2018-08-04T10:28:30.344Z,72.40
2018-08-04T10:30:59.894Z,72.20
2018-08-04T10:33:29.329Z,72.20
2018-08-04T10:35:58.761Z,72.20
2018-08-04T10:38:28.105Z,69.30
2018-08-04T10:40:57.565Z,66.70
2018-08-04T10:43:26.903Z,66.20
2018-08-04T10:45:56.261Z,66.20
2018-08-04T10:48:25.630Z,65.00
2018-08-04T10:50:55.261Z,64.90
2018-08-04T10:53:25.913Z,63.30
2018-08-04T10:55:55.645Z,60.20
2018-08-04T10:58:25.408Z,59.90
2018-08-04T11:00:55.040Z,61.60
2018-08-04T11:03:24.560Z,65.50
2018-08-04T11:05:54.970Z,63.00
2018-08-04T11:08:24.855Z,60.70
2018-08-04T11:10:54.435Z,60.10
2018-08-04T11:13:23.853Z,61.80
2018-08-04T11:15:53.622Z,59.70
2018-08-04T11:18:23.245Z,61.40
2018-08-04T11:20:52.790Z,60.60
2018-08-04T11:23:22.347Z,60.00
2018-08-04T11:25:51.893Z,60.20
2018-08-04T11:28:21.316Z,62.10
2018-08-04T11:30:50.793Z,61.50
2018-08-04T11:33:20.671Z,60.60
2018-08-04T11:35:50.428Z,59.70
2018-08-04T11:38:19.918Z,59.80
2018-08-04T11:40:49.674Z,61.30
2018-08-04T11:43:19.133Z,62.30
2018-08-04T11:45:48.757Z,61.50
2018-08-04T11:48:18.338Z,63.70
2018-08-04T11:50:48.894Z,61.10
2018-08-04T11:53:19.235Z,60.30
2018-08-04T11:55:49.004Z,58.30
2018-08-04T11:58:20.114Z,59.40
2018-08-04T12:00:52.172Z,61.70
2018-08-04T12:03:23.934Z,58.40
2018-08-04T12:05:57.258Z,60.80
2018-08-04T12:08:27.051Z,61.70
2018-08-04T12:10:57.034Z,58.70
2018-08-04T12:13:27.877Z,59.90
2018-08-04T12:15:57.851Z,61.60
2018-08-04T12:18:27.347Z,62.20
2018-08-04T12:20:57.116Z,57.70
2018-08-04T12:23:26.965Z,58.90
2018-08-04T12:25:56.516Z,59.90
2018-08-04T12:28:26.098Z,61.00
2018-08-04T12:30:55.733Z,61.10
2018-08-04T12:33:25.529Z,60.70
2018-08-04T12:35:55.155Z,60.20
2018-08-04T12:38:25.020Z,60.40
2018-08-04T12:40:54.545Z,58.70
2018-08-04T12:43:24.106Z,58.50
2018-08-04T12:45:53.550Z,62.20
2018-08-04T12:48:23.418Z,61.20
2018-08-04T12:50:53.230Z,62.30
2018-08-04T12:53:23.989Z,62.00
2018-08-04T12:58:22.980Z,61.10
2018-08-04T13:00:52.961Z,61.40
2018-08-04T13:03:22.885Z,61.50
2018-08-04T13:05:52.850Z,59.30
2018-08-04T13:08:22.496Z,58.60
2018-08-04T13:10:52.107Z,58.50
2018-08-04T13:13:21.579Z,57.70
2018-08-04T13:15:51.834Z,58.50
2018-08-04T13:18:21.404Z,58.10
2018-08-04T13:20:52.289Z,58.70
2018-08-04T13:23:21.899Z,59.60
2018-08-04T13:25:51.675Z,58.90
2018-08-04T13:28:21.409Z,60.20
2018-08-04T13:30:51.065Z,60.40
2018-08-04T13:33:20.898Z,60.30
2018-08-04T13:35:50.336Z,60.80
2018-08-04T13:38:19.681Z,60.80
2018-08-04T13:40:49.052Z,61.00
2018-08-04T13:43:18.406Z,62.20
2018-08-04T13:45:47.928Z,62.40
2018-08-04T13:48:17.366Z,62.50
2018-08-04T13:50:46.838Z,62.70
2018-08-04T13:53:16.509Z,63.20
2018-08-04T13:55:45.927Z,62.70
2018-08-04T13:58:15.332Z,62.80
2018-08-04T14:00:44.724Z,64.10
2018-08-04T14:03:14.360Z,64.30
2018-08-04T14:05:44.721Z,64.80
2018-08-04T14:08:14.530Z,63.60
2018-08-04T14:10:44.037Z,63.60
2018-08-04T14:13:13.431Z,64.40
2018-08-04T14:15:42.854Z,64.80
2018-08-04T14:18:12.351Z,64.00
2018-08-04T14:20:41.954Z,64.20
2018-08-04T14:23:11.769Z,63.50
2018-08-04T14:25:42.416Z,64.30
2018-08-04T14:28:11.782Z,64.60
2018-08-04T14:30:41.232Z,63.40
2018-08-04T14:33:13.170Z,63.80
2018-08-04T14:35:43.105Z,64.10
2018-08-04T14:38:13.296Z,63.90
2018-08-04T14:40:43.098Z,64.70
2018-08-04T14:43:13.115Z,63.60
2018-08-04T14:45:47.640Z,64.90
2018-08-04T14:50:47.238Z,63.70
2018-08-04T14:53:18.169Z,63.80
2018-08-04T14:55:48.411Z,64.50
2018-08-04T14:58:18.386Z,62.70
2018-08-04T15:00:47.777Z,63.10
2018-08-04T15:03:17.294Z,63.70
2018-08-04T15:05:46.664Z,63.20
2018-08-04T15:08:16.030Z,62.90
2018-08-04T15:10:45.414Z,64.50
2018-08-04T15:15:49.558Z,62.10
2018-08-04T15:18:22.143Z,64.10
2018-08-04T15:23:31.778Z,65.60
2018-08-04T15:26:01.789Z,64.00
2018-08-04T15:28:32.524Z,64.50
2018-08-04T15:31:02.567Z,63.50
2018-08-04T15:33:33.514Z,63.90
2018-08-04T15:36:04.552Z,63.50
2018-08-04T15:38:38.107Z,62.00
2018-08-04T15:41:08.374Z,62.20
2018-08-04T15:43:39.150Z,62.50
2018-08-04T15:46:15.288Z,64.20
2018-08-04T15:48:45.211Z,63.50
2018-08-04T15:51:18.388Z,63.80
2018-08-04T15:53:48.422Z,61.50
2018-08-04T15:59:05.269Z,63.10
2018-08-04T16:01:36.285Z,62.60
2018-08-04T16:04:08.954Z,64.00
2018-08-04T16:06:40.832Z,62.50
2018-08-04T16:09:14.651Z,62.00
2018-08-04T16:11:45.748Z,62.50
2018-08-04T16:14:16.423Z,63.20
2018-08-04T16:16:45.913Z,62.40
2018-08-04T16:19:15.327Z,62.20
2018-08-04T16:21:45.108Z,62.10
2018-08-04T16:26:44.823Z,62.60
2018-08-04T16:29:14.202Z,62.30
2018-08-04T16:31:43.783Z,62.10
2018-08-04T16:34:13.932Z,62.50
2018-08-04T16:36:48.233Z,62.60
2018-08-04T16:39:17.645Z,63.90
2018-08-04T16:41:47.120Z,61.80
2018-08-04T16:44:16.806Z,61.70
2018-08-04T16:46:47.036Z,62.50
2018-08-04T16:49:16.621Z,64.20
2018-08-04T16:51:47.617Z,63.40
2018-08-04T16:54:17.409Z,62.30
2018-08-04T16:56:47.656Z,61.80
2018-08-04T16:59:18.359Z,61.80
2018-08-04T17:01:47.838Z,61.50
2018-08-04T17:04:18.044Z,61.30
2018-08-04T17:06:47.714Z,62.00
2018-08-04T17:09:18.394Z,61.50
2018-08-04T17:11:47.906Z,62.00
2018-08-04T17:14:17.409Z,63.10
2018-08-04T17:16:47.210Z,62.00
2018-08-04T17:19:20.340Z,62.60
2018-08-04T17:21:56.779Z,62.20
2018-08-04T17:24:27.021Z,62.30
2018-08-04T17:26:56.591Z,63.20
2018-08-04T17:29:26.181Z,62.40
2018-08-04T17:31:55.712Z,62.60
2018-08-04T17:34:30.572Z,62.50
2018-08-04T17:37:06.327Z,62.20
2018-08-04T17:39:41.293Z,62.30
2018-08-04T17:42:11.254Z,62.80
2018-08-04T17:44:40.939Z,63.30
2018-08-04T17:47:10.466Z,63.50
2018-08-04T17:49:39.993Z,63.50
2018-08-04T17:52:09.363Z,63.70
2018-08-04T17:54:39.085Z,64.00
2018-08-04T17:59:37.602Z,65.00
2018-08-04T18:02:07.940Z,64.70
2018-08-04T18:04:37.623Z,64.70
2018-08-04T18:07:07.045Z,65.30
2018-08-04T18:09:36.562Z,65.50
2018-08-04T18:12:06.128Z,65.20
2018-08-04T18:14:35.551Z,65.60
2018-08-04T18:17:05.027Z,66.70
2018-08-04T18:19:34.524Z,67.70
2018-08-04T18:22:03.886Z,66.70
2018-08-04T18:24:33.380Z,66.00
2018-08-04T18:27:02.982Z,67.80
2018-08-04T18:29:32.676Z,67.20
2018-08-04T18:32:02.142Z,69.20
2018-08-04T18:34:31.983Z,68.70
2018-08-04T18:37:01.602Z,69.60
2018-08-04T18:39:32.838Z,69.70
2018-08-04T18:42:02.784Z,70.50
2018-08-04T18:44:32.168Z,70.90
2018-08-04T18:47:02.155Z,71.40
2018-08-04T18:49:31.915Z,71.80
2018-08-04T18:52:01.294Z,73.20
2018-08-04T18:54:31.855Z,73.20
2018-08-04T18:57:01.341Z,74.50
2018-08-04T18:59:30.985Z,73.80
2018-08-04T19:02:01.766Z,74.10
2018-08-04T19:04:31.080Z,75.60
2018-08-04T19:07:00.439Z,77.30
2018-08-04T19:09:29.737Z,77.60
2018-08-04T19:11:59.085Z,77.30
2018-08-04T19:14:28.366Z,78.70
2018-08-04T19:21:55.432Z,79.00
2018-08-04T19:24:25.746Z,79.10
2018-08-04T19:26:55.074Z,80.00
2018-08-04T19:29:24.378Z,79.60
2018-08-04T19:31:53.697Z,81.40
2018-08-04T19:34:22.981Z,81.30
2018-08-04T19:39:21.114Z,81.70
2018-08-04T19:41:50.482Z,83.40
2018-08-04T19:46:49.059Z,85.10
2018-08-04T19:49:18.335Z,85.10
2018-08-04T19:51:47.712Z,85.60
2018-08-04T19:54:16.998Z,85.30
2018-08-04T19:56:46.316Z,85.20
2018-08-04T19:59:15.606Z,85.90
2018-08-04T20:01:45.052Z,86.30
2018-08-04T20:04:14.393Z,85.70
2018-08-04T20:06:43.842Z,86.00
2018-08-04T20:09:13.263Z,85.60
2018-08-04T20:11:42.563Z,86.10
2018-08-04T20:14:11.883Z,87.20
2018-08-04T20:16:41.175Z,86.00
2018-08-04T20:19:10.510Z,87.00
2018-08-04T20:21:39.825Z,87.20
2018-08-04T20:24:09.157Z,88.30
2018-08-04T20:26:38.466Z,87.50
2018-08-04T20:29:07.816Z,88.20
2018-08-04T20:31:37.118Z,87.30
2018-08-04T20:34:06.479Z,87.90
2018-08-04T20:36:35.846Z,89.20
2018-08-04T20:39:08.172Z,89.10
2018-08-04T20:41:37.546Z,89.40
2018-08-04T20:44:07.040Z,90.20
2018-08-04T20:46:36.486Z,90.00
2018-08-04T20:51:34.899Z,90.20
2018-08-04T20:54:04.487Z,90.30
2018-08-04T20:56:33.787Z,90.30
2018-08-04T20:59:03.176Z,90.40
2018-08-04T21:01:43.328Z,90.30
2018-08-04T21:04:12.673Z,90.60
2018-08-04T21:06:41.970Z,90.50
2018-08-04T21:09:11.410Z,90.90
2018-08-04T21:11:54.468Z,91.20
2018-08-04T21:14:24.993Z,91.50
2018-08-04T21:16:55.248Z,91.60
2018-08-04T21:19:25.265Z,91.50
2018-08-04T21:21:54.642Z,91.60
2018-08-04T21:24:25.042Z,92.10
2018-08-04T21:26:55.189Z,91.90
2018-08-04T21:29:24.818Z,92.50
2018-08-04T21:31:54.124Z,92.70
2018-08-04T21:34:23.464Z,92.90
2018-08-04T21:36:52.784Z,93.00
2018-08-04T21:39:22.160Z,93.50
2018-08-04T21:41:51.457Z,93.40
2018-08-04T21:44:20.843Z,93.70
2018-08-04T21:46:51.159Z,93.60
2018-08-04T21:49:20.956Z,93.10
2018-08-04T21:51:51.097Z,93.70
2018-08-04T21:54:20.576Z,93.40
2018-08-04T21:56:49.893Z,93.60
2018-08-04T21:59:19.214Z,94.00
2018-08-04T22:01:55.785Z,93.40
2018-08-04T22:04:25.768Z,93.20
2018-08-04T22:08:05.530Z,93.90
2018-08-04T22:10:35.046Z,94.00
2018-08-04T22:13:04.474Z,93.90
2018-08-04T22:15:33.860Z,94.30
2018-08-04T22:18:03.297Z,94.00
2018-08-04T22:20:32.694Z,94.30
2018-08-04T22:23:02.009Z,94.40
2018-08-04T22:25:31.392Z,94.50
2018-08-04T22:28:00.738Z,94.80
2018-08-04T22:30:30.056Z,95.10
2018-08-04T22:32:59.495Z,95.20
2018-08-04T22:35:28.812Z,95.10
2018-08-04T22:37:58.121Z,95.20
2018-08-04T22:40:27.473Z,95.40
2018-08-04T22:42:56.782Z,95.70
2018-08-04T22:46:29.214Z,95.50
2018-08-04T22:48:58.552Z,95.80
2018-08-04T22:51:29.516Z,95.70
2018-08-04T22:53:58.868Z,95.70
2018-08-04T22:56:28.203Z,96.30
2018-08-04T22:58:57.499Z,96.20
2018-08-04T23:01:26.837Z,96.30
2018-08-04T23:03:56.138Z,96.30
2018-08-04T23:06:25.461Z,96.40
2018-08-04T23:08:54.765Z,96.20
2018-08-04T23:11:24.099Z,96.40
2018-08-04T23:13:53.430Z,96.20
2018-08-04T23:16:22.796Z,96.40
2018-08-04T23:18:52.234Z,96.40
2018-08-04T23:21:21.568Z,96.40
2018-08-04T23:23:50.888Z,97.00
2018-08-04T23:26:20.181Z,97.40
2018-08-04T23:28:49.520Z,97.90
2018-08-04T23:31:18.829Z,98.30
2018-08-04T23:33:48.169Z,98.90
2018-08-04T23:36:17.454Z,98.70
2018-08-04T23:38:46.859Z,98.70
2018-08-04T23:41:16.157Z,99.00
2018-08-04T23:43:45.505Z,98.90
2018-08-04T23:46:14.836Z,98.90
2018-08-04T23:48:44.194Z,99.10
2018-08-04T23:51:13.493Z,99.10
2018-08-04T23:53:42.812Z,99.50
2018-08-04T23:56:12.258Z,99.70
2018-08-04T23:58:41.922Z,99.90
